sensor_id;sensor_type;location;lat;lon;timestamp;P1;durP1;ratioP1;P2;durP2;ratioP2
73296;SDS011;61524;50.938;11.396;2022-10-16T00:00:56;0.98;;;0.70;;
73296;SDS011;61524;50.938;11.396;2022-10-16T00:03:21;1.08;;;0.70;;
73296;SDS011;61524;50.938;11.396;2022-10-16T00:05:47;2.55;;;1.00;;
73296;SDS011;61524;50.938;11.396;2022-10-16T00:08:12;5.18;;;0.90;;
73296;SDS011;61524;50.938;11.396;2022-10-16T00:10:38;2.20;;;0.70;;
73296;SDS011;61524;50.938;11.396;2022-10-16T00:13:05;1.55;;;0.70;;
73296;SDS011;61524;50.938;11.396;2022-10-16T00:15:35;1.35;;;0.70;;
73296;SDS011;61524;50.938;11.396;2022-10-16T00:18:02;1.13;;;0.90;;
73296;SDS011;61524;50.938;11.396;2022-10-16T00:20:29;1.00;;;0.63;;
73296;SDS011;61524;50.938;11.396;2022-10-16T00:22:56;2.65;;;1.10;;
73296;SDS011;61524;50.938;11.396;2022-10-16T00:25:22;1.92;;;0.90;;
73296;SDS011;61524;50.938;11.396;2022-10-16T00:27:47;1.60;;;0.95;;
73296;SDS011;61524;50.938;11.396;2022-10-16T00:30:13;2.13;;;0.80;;
73296;SDS011;61524;50.938;11.396;2022-10-16T00:32:38;1.90;;;0.93;;
73296;SDS011;61524;50.938;11.396;2022-10-16T00:35:04;1.63;;;1.00;;
73296;SDS011;61524;50.938;11.396;2022-10-16T00:37:30;2.10;;;0.93;;
73296;SDS011;61524;50.938;11.396;2022-10-16T00:39:55;1.38;;;0.88;;
73296;SDS011;61524;50.938;11.396;2022-10-16T00:42:20;1.52;;;0.82;;
73296;SDS011;61524;50.938;11.396;2022-10-16T00:47:19;1.10;;;0.80;;
73296;SDS011;61524;50.938;11.396;2022-10-16T00:49:46;2.03;;;1.00;;
73296;SDS011;61524;50.938;11.396;2022-10-16T00:52:13;2.83;;;0.82;;
73296;SDS011;61524;50.938;11.396;2022-10-16T00:54:39;2.15;;;0.90;;
73296;SDS011;61524;50.938;11.396;2022-10-16T00:57:05;1.88;;;0.80;;
73296;SDS011;61524;50.938;11.396;2022-10-16T00:59:33;1.90;;;0.98;;
73296;SDS011;61524;50.938;11.396;2022-10-16T01:02:02;1.75;;;0.90;;
73296;SDS011;61524;50.938;11.396;2022-10-16T01:04:35;1.48;;;0.90;;
73296;SDS011;61524;50.938;11.396;2022-10-16T01:07:10;1.98;;;1.10;;
73296;SDS011;61524;50.938;11.396;2022-10-16T01:15:02;2.00;;;1.10;;
73296;SDS011;61524;50.938;11.396;2022-10-16T01:20:16;2.22;;;1.00;;
73296;SDS011;61524;50.938;11.396;2022-10-16T01:22:49;2.50;;;0.93;;
73296;SDS011;61524;50.938;11.396;2022-10-16T01:25:23;1.70;;;0.88;;
73296;SDS011;61524;50.938;11.396;2022-10-16T01:27:56;1.63;;;0.90;;
73296;SDS011;61524;50.938;11.396;2022-10-16T01:30:25;1.42;;;0.98;;
73296;SDS011;61524;50.938;11.396;2022-10-16T01:32:54;1.50;;;0.85;;
73296;SDS011;61524;50.938;11.396;2022-10-16T01:38:16;3.35;;;1.08;;
73296;SDS011;61524;50.938;11.396;2022-10-16T01:40:57;1.88;;;1.20;;
73296;SDS011;61524;50.938;11.396;2022-10-16T01:43:28;1.40;;;0.70;;
73296;SDS011;61524;50.938;11.396;2022-10-16T01:46:00;2.22;;;1.13;;
73296;SDS011;61524;50.938;11.396;2022-10-16T01:48:26;2.00;;;0.90;;
73296;SDS011;61524;50.938;11.396;2022-10-16T01:50:54;2.53;;;1.17;;
73296;SDS011;61524;50.938;11.396;2022-10-16T01:53:24;2.33;;;1.00;;
73296;SDS011;61524;50.938;11.396;2022-10-16T01:55:52;2.65;;;1.60;;
73296;SDS011;61524;50.938;11.396;2022-10-16T01:58:20;2.58;;;1.48;;
73296;SDS011;61524;50.938;11.396;2022-10-16T02:00:48;2.65;;;1.55;;
73296;SDS011;61524;50.938;11.396;2022-10-16T02:03:14;2.38;;;1.40;;
73296;SDS011;61524;50.938;11.396;2022-10-16T02:05:47;1.70;;;0.93;;
73296;SDS011;61524;50.938;11.396;2022-10-16T02:08:19;3.58;;;1.02;;
73296;SDS011;61524;50.938;11.396;2022-10-16T02:10:45;1.80;;;1.02;;
73296;SDS011;61524;50.938;11.396;2022-10-16T02:15:52;1.85;;;0.98;;
73296;SDS011;61524;50.938;11.396;2022-10-16T02:18:17;2.38;;;1.42;;
73296;SDS011;61524;50.938;11.396;2022-10-16T02:20:55;3.65;;;1.33;;
73296;SDS011;61524;50.938;11.396;2022-10-16T02:26:36;2.28;;;1.20;;
73296;SDS011;61524;50.938;11.396;2022-10-16T02:29:12;2.45;;;1.27;;
73296;SDS011;61524;50.938;11.396;2022-10-16T02:31:42;2.25;;;1.10;;
73296;SDS011;61524;50.938;11.396;2022-10-16T02:34:13;3.50;;;1.38;;
73296;SDS011;61524;50.938;11.396;2022-10-16T02:36:40;2.17;;;1.10;;
73296;SDS011;61524;50.938;11.396;2022-10-16T02:39:08;1.40;;;0.85;;
73296;SDS011;61524;50.938;11.396;2022-10-16T02:41:35;2.33;;;1.38;;
73296;SDS011;61524;50.938;11.396;2022-10-16T02:44:01;2.92;;;1.50;;
73296;SDS011;61524;50.938;11.396;2022-10-16T02:46:26;2.05;;;1.20;;
73296;SDS011;61524;50.938;11.396;2022-10-16T02:48:51;2.58;;;1.40;;
73296;SDS011;61524;50.938;11.396;2022-10-16T02:51:17;2.30;;;1.30;;
73296;SDS011;61524;50.938;11.396;2022-10-16T02:53:42;3.53;;;1.60;;
73296;SDS011;61524;50.938;11.396;2022-10-16T02:56:08;2.60;;;1.50;;
73296;SDS011;61524;50.938;11.396;2022-10-16T02:58:33;2.30;;;1.30;;
73296;SDS011;61524;50.938;11.396;2022-10-16T03:00:59;3.05;;;1.13;;
73296;SDS011;61524;50.938;11.396;2022-10-16T03:03:24;3.20;;;1.23;;
73296;SDS011;61524;50.938;11.396;2022-10-16T03:05:50;2.85;;;1.23;;
73296;SDS011;61524;50.938;11.396;2022-10-16T03:08:15;1.90;;;1.05;;
73296;SDS011;61524;50.938;11.396;2022-10-16T03:10:41;4.18;;;1.50;;
73296;SDS011;61524;50.938;11.396;2022-10-16T03:13:06;2.25;;;1.25;;
73296;SDS011;61524;50.938;11.396;2022-10-16T03:15:32;2.38;;;1.48;;
73296;SDS011;61524;50.938;11.396;2022-10-16T03:17:57;1.65;;;0.98;;
73296;SDS011;61524;50.938;11.396;2022-10-16T03:20:24;2.60;;;1.23;;
73296;SDS011;61524;50.938;11.396;2022-10-16T03:22:49;2.00;;;1.20;;
73296;SDS011;61524;50.938;11.396;2022-10-16T03:25:15;2.13;;;1.20;;
73296;SDS011;61524;50.938;11.396;2022-10-16T03:27:40;1.88;;;1.05;;
73296;SDS011;61524;50.938;11.396;2022-10-16T03:30:06;3.50;;;1.63;;
73296;SDS011;61524;50.938;11.396;2022-10-16T03:32:32;3.92;;;1.10;;
73296;SDS011;61524;50.938;11.396;2022-10-16T03:34:57;3.42;;;1.00;;
73296;SDS011;61524;50.938;11.396;2022-10-16T03:37:22;2.65;;;1.30;;
73296;SDS011;61524;50.938;11.396;2022-10-16T03:39:48;1.70;;;1.10;;
73296;SDS011;61524;50.938;11.396;2022-10-16T03:42:14;2.38;;;1.38;;
73296;SDS011;61524;50.938;11.396;2022-10-16T03:44:39;6.70;;;1.67;;
73296;SDS011;61524;50.938;11.396;2022-10-16T03:47:04;3.47;;;1.60;;
73296;SDS011;61524;50.938;11.396;2022-10-16T03:49:30;2.58;;;1.48;;
73296;SDS011;61524;50.938;11.396;2022-10-16T03:51:55;2.92;;;1.15;;
73296;SDS011;61524;50.938;11.396;2022-10-16T03:54:21;2.15;;;1.20;;
73296;SDS011;61524;50.938;11.396;2022-10-16T03:56:47;1.88;;;0.90;;
73296;SDS011;61524;50.938;11.396;2022-10-16T03:59:13;2.10;;;1.33;;
73296;SDS011;61524;50.938;11.396;2022-10-16T04:01:38;2.92;;;1.20;;
73296;SDS011;61524;50.938;11.396;2022-10-16T04:04:04;3.50;;;1.30;;
73296;SDS011;61524;50.938;11.396;2022-10-16T04:06:29;1.85;;;1.20;;
73296;SDS011;61524;50.938;11.396;2022-10-16T04:08:55;2.30;;;1.20;;
73296;SDS011;61524;50.938;11.396;2022-10-16T04:11:21;2.47;;;1.63;;
73296;SDS011;61524;50.938;11.396;2022-10-16T04:13:46;1.63;;;0.90;;
73296;SDS011;61524;50.938;11.396;2022-10-16T04:16:12;2.70;;;1.40;;
73296;SDS011;61524;50.938;11.396;2022-10-16T04:18:37;2.53;;;1.25;;
73296;SDS011;61524;50.938;11.396;2022-10-16T04:21:03;2.28;;;1.10;;
73296;SDS011;61524;50.938;11.396;2022-10-16T04:25:55;2.85;;;1.10;;
73296;SDS011;61524;50.938;11.396;2022-10-16T04:28:20;2.60;;;1.05;;
73296;SDS011;61524;50.938;11.396;2022-10-16T04:30:46;3.50;;;1.35;;
73296;SDS011;61524;50.938;11.396;2022-10-16T04:33:11;2.55;;;1.33;;
73296;SDS011;61524;50.938;11.396;2022-10-16T04:35:37;2.13;;;1.00;;
73296;SDS011;61524;50.938;11.396;2022-10-16T04:38:03;1.90;;;1.13;;
73296;SDS011;61524;50.938;11.396;2022-10-16T04:40:29;1.83;;;1.05;;
73296;SDS011;61524;50.938;11.396;2022-10-16T04:42:57;2.63;;;1.13;;
73296;SDS011;61524;50.938;11.396;2022-10-16T04:45:24;2.20;;;1.30;;
73296;SDS011;61524;50.938;11.396;2022-10-16T04:47:50;2.15;;;1.20;;
73296;SDS011;61524;50.938;11.396;2022-10-16T04:50:15;3.10;;;1.17;;
73296;SDS011;61524;50.938;11.396;2022-10-16T04:52:41;2.83;;;1.10;;
73296;SDS011;61524;50.938;11.396;2022-10-16T04:55:06;5.03;;;1.25;;
73296;SDS011;61524;50.938;11.396;2022-10-16T04:57:32;2.03;;;1.23;;
73296;SDS011;61524;50.938;11.396;2022-10-16T04:59:58;2.03;;;1.10;;
73296;SDS011;61524;50.938;11.396;2022-10-16T05:02:24;3.60;;;1.70;;
73296;SDS011;61524;50.938;11.396;2022-10-16T05:04:50;3.45;;;1.42;;
73296;SDS011;61524;50.938;11.396;2022-10-16T05:07:16;2.47;;;1.42;;
73296;SDS011;61524;50.938;11.396;2022-10-16T05:09:42;3.92;;;1.45;;
73296;SDS011;61524;50.938;11.396;2022-10-16T05:12:07;2.92;;;1.30;;
73296;SDS011;61524;50.938;11.396;2022-10-16T05:14:32;1.90;;;1.10;;
73296;SDS011;61524;50.938;11.396;2022-10-16T05:16:59;3.40;;;1.55;;
73296;SDS011;61524;50.938;11.396;2022-10-16T05:19:25;3.45;;;1.30;;
73296;SDS011;61524;50.938;11.396;2022-10-16T05:21:51;2.13;;;1.13;;
73296;SDS011;61524;50.938;11.396;2022-10-16T05:24:16;2.90;;;1.40;;
73296;SDS011;61524;50.938;11.396;2022-10-16T05:26:42;2.10;;;1.30;;
73296;SDS011;61524;50.938;11.396;2022-10-16T05:29:07;4.63;;;1.58;;
73296;SDS011;61524;50.938;11.396;2022-10-16T05:31:34;2.72;;;1.33;;
73296;SDS011;61524;50.938;11.396;2022-10-16T05:34:00;4.28;;;1.65;;
73296;SDS011;61524;50.938;11.396;2022-10-16T05:36:26;2.88;;;1.67;;
73296;SDS011;61524;50.938;11.396;2022-10-16T05:38:52;3.90;;;1.73;;
73296;SDS011;61524;50.938;11.396;2022-10-16T05:41:17;2.70;;;1.58;;
73296;SDS011;61524;50.938;11.396;2022-10-16T05:43:46;2.15;;;1.25;;
73296;SDS011;61524;50.938;11.396;2022-10-16T05:46:12;3.03;;;2.10;;
73296;SDS011;61524;50.938;11.396;2022-10-16T05:48:38;2.97;;;1.40;;
73296;SDS011;61524;50.938;11.396;2022-10-16T05:51:04;3.38;;;1.38;;
73296;SDS011;61524;50.938;11.396;2022-10-16T05:53:32;2.22;;;1.35;;
73296;SDS011;61524;50.938;11.396;2022-10-16T05:55:59;2.33;;;1.10;;
73296;SDS011;61524;50.938;11.396;2022-10-16T05:58:25;2.50;;;1.13;;
73296;SDS011;61524;50.938;11.396;2022-10-16T06:01:13;3.58;;;1.30;;
73296;SDS011;61524;50.938;11.396;2022-10-16T06:03:40;2.60;;;1.38;;
73296;SDS011;61524;50.938;11.396;2022-10-16T06:06:07;3.63;;;1.38;;
73296;SDS011;61524;50.938;11.396;2022-10-16T06:08:34;2.10;;;1.38;;
73296;SDS011;61524;50.938;11.396;2022-10-16T06:11:00;2.30;;;1.40;;
73296;SDS011;61524;50.938;11.396;2022-10-16T06:13:27;2.40;;;1.25;;
73296;SDS011;61524;50.938;11.396;2022-10-16T06:15:53;1.90;;;1.20;;
73296;SDS011;61524;50.938;11.396;2022-10-16T06:18:18;2.67;;;1.50;;
73296;SDS011;61524;50.938;11.396;2022-10-16T06:20:43;3.25;;;1.40;;
73296;SDS011;61524;50.938;11.396;2022-10-16T06:23:09;2.55;;;1.40;;
73296;SDS011;61524;50.938;11.396;2022-10-16T06:25:34;2.75;;;1.65;;
73296;SDS011;61524;50.938;11.396;2022-10-16T06:28:00;3.47;;;1.70;;
73296;SDS011;61524;50.938;11.396;2022-10-16T06:30:25;2.08;;;1.27;;
73296;SDS011;61524;50.938;11.396;2022-10-16T06:32:50;2.67;;;1.90;;
73296;SDS011;61524;50.938;11.396;2022-10-16T06:35:16;3.30;;;1.50;;
73296;SDS011;61524;50.938;11.396;2022-10-16T06:37:41;2.33;;;1.30;;
73296;SDS011;61524;50.938;11.396;2022-10-16T06:40:07;4.97;;;1.80;;
73296;SDS011;61524;50.938;11.396;2022-10-16T06:42:33;3.13;;;1.88;;
73296;SDS011;61524;50.938;11.396;2022-10-16T06:44:58;4.43;;;1.55;;
73296;SDS011;61524;50.938;11.396;2022-10-16T06:47:23;2.67;;;1.33;;
73296;SDS011;61524;50.938;11.396;2022-10-16T06:49:49;2.53;;;1.08;;
73296;SDS011;61524;50.938;11.396;2022-10-16T06:52:14;2.72;;;1.13;;
73296;SDS011;61524;50.938;11.396;2022-10-16T06:54:40;1.80;;;1.10;;
73296;SDS011;61524;50.938;11.396;2022-10-16T06:57:05;1.45;;;0.95;;
73296;SDS011;61524;50.938;11.396;2022-10-16T06:59:30;2.28;;;0.70;;
73296;SDS011;61524;50.938;11.396;2022-10-16T07:01:56;2.50;;;0.85;;
73296;SDS011;61524;50.938;11.396;2022-10-16T07:04:21;1.25;;;0.75;;
73296;SDS011;61524;50.938;11.396;2022-10-16T07:06:47;2.42;;;1.10;;
73296;SDS011;61524;50.938;11.396;2022-10-16T07:09:12;1.27;;;0.90;;
73296;SDS011;61524;50.938;11.396;2022-10-16T07:11:38;1.25;;;0.73;;
73296;SDS011;61524;50.938;11.396;2022-10-16T07:16:36;1.67;;;0.85;;
73296;SDS011;61524;50.938;11.396;2022-10-16T07:19:02;0.90;;;0.70;;
73296;SDS011;61524;50.938;11.396;2022-10-16T07:21:28;1.45;;;0.50;;
73296;SDS011;61524;50.938;11.396;2022-10-16T07:24:00;0.40;;;0.32;;
73296;SDS011;61524;50.938;11.396;2022-10-16T07:26:27;2.10;;;0.70;;
73296;SDS011;61524;50.938;11.396;2022-10-16T07:28:55;0.65;;;0.50;;
73296;SDS011;61524;50.938;11.396;2022-10-16T07:33:47;0.90;;;0.73;;
73296;SDS011;61524;50.938;11.396;2022-10-16T07:36:17;0.60;;;0.50;;
73296;SDS011;61524;50.938;11.396;2022-10-16T07:38:44;0.95;;;0.50;;
73296;SDS011;61524;50.938;11.396;2022-10-16T07:41:11;1.00;;;0.55;;
73296;SDS011;61524;50.938;11.396;2022-10-16T07:43:38;1.13;;;0.80;;
73296;SDS011;61524;50.938;11.396;2022-10-16T07:46:04;0.32;;;0.32;;
73296;SDS011;61524;50.938;11.396;2022-10-16T07:48:31;0.98;;;0.60;;
73296;SDS011;61524;50.938;11.396;2022-10-16T07:50:58;0.82;;;0.40;;
73296;SDS011;61524;50.938;11.396;2022-10-16T07:53:27;0.93;;;0.65;;
73296;SDS011;61524;50.938;11.396;2022-10-16T07:55:57;2.05;;;0.80;;
73296;SDS011;61524;50.938;11.396;2022-10-16T07:58:24;0.88;;;0.70;;
73296;SDS011;61524;50.938;11.396;2022-10-16T08:00:49;0.47;;;0.43;;
73296;SDS011;61524;50.938;11.396;2022-10-16T08:03:15;0.75;;;0.63;;
73296;SDS011;61524;50.938;11.396;2022-10-16T08:05:40;0.60;;;0.50;;
73296;SDS011;61524;50.938;11.396;2022-10-16T08:08:05;1.60;;;0.90;;
73296;SDS011;61524;50.938;11.396;2022-10-16T08:10:31;3.00;;;0.93;;
73296;SDS011;61524;50.938;11.396;2022-10-16T08:12:56;1.25;;;0.82;;
73296;SDS011;61524;50.938;11.396;2022-10-16T08:15:22;1.25;;;0.80;;
73296;SDS011;61524;50.938;11.396;2022-10-16T08:17:54;2.03;;;1.05;;
73296;SDS011;61524;50.938;11.396;2022-10-16T08:20:24;2.15;;;1.02;;
73296;SDS011;61524;50.938;11.396;2022-10-16T08:22:50;2.05;;;1.20;;
73296;SDS011;61524;50.938;11.396;2022-10-16T08:25:16;2.97;;;1.60;;
73296;SDS011;61524;50.938;11.396;2022-10-16T08:27:41;2.28;;;1.27;;
73296;SDS011;61524;50.938;11.396;2022-10-16T08:30:07;2.58;;;1.25;;
73296;SDS011;61524;50.938;11.396;2022-10-16T08:32:33;2.53;;;1.23;;
73296;SDS011;61524;50.938;11.396;2022-10-16T08:34:59;1.85;;;1.00;;
73296;SDS011;61524;50.938;11.396;2022-10-16T08:37:24;2.78;;;1.50;;
73296;SDS011;61524;50.938;11.396;2022-10-16T08:39:50;2.08;;;1.20;;
73296;SDS011;61524;50.938;11.396;2022-10-16T08:50:23;2.42;;;1.48;;
73296;SDS011;61524;50.938;11.396;2022-10-16T08:52:51;3.50;;;2.10;;
73296;SDS011;61524;50.938;11.396;2022-10-16T08:58:13;2.72;;;1.55;;
73296;SDS011;61524;50.938;11.396;2022-10-16T09:00:41;2.25;;;1.30;;
73296;SDS011;61524;50.938;11.396;2022-10-16T09:08:26;3.78;;;1.73;;
73296;SDS011;61524;50.938;11.396;2022-10-16T09:11:03;2.90;;;1.83;;
73296;SDS011;61524;50.938;11.396;2022-10-16T09:23:48;3.03;;;1.77;;
73296;SDS011;61524;50.938;11.396;2022-10-16T09:26:14;3.63;;;1.50;;
73296;SDS011;61524;50.938;11.396;2022-10-16T09:28:41;2.55;;;1.55;;
73296;SDS011;61524;50.938;11.396;2022-10-16T09:31:17;2.60;;;1.50;;
73296;SDS011;61524;50.938;11.396;2022-10-16T09:33:45;2.80;;;1.58;;
73296;SDS011;61524;50.938;11.396;2022-10-16T09:36:15;2.17;;;1.33;;
73296;SDS011;61524;50.938;11.396;2022-10-16T09:38:41;2.33;;;1.50;;
73296;SDS011;61524;50.938;11.396;2022-10-16T09:43:47;2.08;;;1.25;;
73296;SDS011;61524;50.938;11.396;2022-10-16T09:46:30;3.22;;;1.30;;
73296;SDS011;61524;50.938;11.396;2022-10-16T09:49:18;3.67;;;1.20;;
73296;SDS011;61524;50.938;11.396;2022-10-16T09:51:46;2.83;;;1.23;;
73296;SDS011;61524;50.938;11.396;2022-10-16T09:54:14;2.55;;;1.00;;
73296;SDS011;61524;50.938;11.396;2022-10-16T09:56:42;2.15;;;1.20;;
73296;SDS011;61524;50.938;11.396;2022-10-16T10:01:38;1.70;;;1.10;;
73296;SDS011;61524;50.938;11.396;2022-10-16T10:04:07;2.55;;;1.35;;
73296;SDS011;61524;50.938;11.396;2022-10-16T10:06:40;3.25;;;1.33;;
73296;SDS011;61524;50.938;11.396;2022-10-16T10:11:47;2.40;;;1.20;;
73296;SDS011;61524;50.938;11.396;2022-10-16T10:16:46;3.38;;;1.10;;
73296;SDS011;61524;50.938;11.396;2022-10-16T10:19:16;1.83;;;0.88;;
73296;SDS011;61524;50.938;11.396;2022-10-16T10:21:43;1.88;;;1.05;;
73296;SDS011;61524;50.938;11.396;2022-10-16T10:24:10;2.08;;;1.08;;
73296;SDS011;61524;50.938;11.396;2022-10-16T10:26:37;1.90;;;1.15;;
73296;SDS011;61524;50.938;11.396;2022-10-16T10:29:06;2.25;;;0.90;;
73296;SDS011;61524;50.938;11.396;2022-10-16T10:37:19;2.08;;;1.10;;
73296;SDS011;61524;50.938;11.396;2022-10-16T10:40:11;1.27;;;0.70;;
73296;SDS011;61524;50.938;11.396;2022-10-16T10:45:42;1.90;;;0.90;;
73296;SDS011;61524;50.938;11.396;2022-10-16T10:54:13;3.20;;;1.10;;
73296;SDS011;61524;50.938;11.396;2022-10-16T11:00:06;1.85;;;1.13;;
73296;SDS011;61524;50.938;11.396;2022-10-16T11:02:41;1.80;;;1.10;;
73296;SDS011;61524;50.938;11.396;2022-10-16T11:07:56;3.13;;;1.00;;
73296;SDS011;61524;50.938;11.396;2022-10-16T11:13:17;2.65;;;1.30;;
73296;SDS011;61524;50.938;11.396;2022-10-16T11:15:50;2.47;;;1.20;;
73296;SDS011;61524;50.938;11.396;2022-10-16T11:18:29;1.75;;;0.82;;
73296;SDS011;61524;50.938;11.396;2022-10-16T11:21:04;2.60;;;1.10;;
73296;SDS011;61524;50.938;11.396;2022-10-16T11:26:26;3.65;;;1.15;;
73296;SDS011;61524;50.938;11.396;2022-10-16T11:28:56;1.83;;;1.10;;
73296;SDS011;61524;50.938;11.396;2022-10-16T11:34:05;2.00;;;0.98;;
73296;SDS011;61524;50.938;11.396;2022-10-16T11:36:47;1.40;;;0.88;;
73296;SDS011;61524;50.938;11.396;2022-10-16T11:39:21;2.97;;;1.02;;
73296;SDS011;61524;50.938;11.396;2022-10-16T11:41:54;1.95;;;1.25;;
73296;SDS011;61524;50.938;11.396;2022-10-16T11:47:05;1.85;;;1.17;;
73296;SDS011;61524;50.938;11.396;2022-10-16T11:49:33;2.15;;;0.93;;
73296;SDS011;61524;50.938;11.396;2022-10-16T11:54:47;1.35;;;0.80;;
73296;SDS011;61524;50.938;11.396;2022-10-16T11:57:17;1.35;;;0.90;;
73296;SDS011;61524;50.938;11.396;2022-10-16T12:08:34;1.45;;;1.00;;
73296;SDS011;61524;50.938;11.396;2022-10-16T12:11:07;0.98;;;0.63;;
73296;SDS011;61524;50.938;11.396;2022-10-16T12:13:48;2.80;;;1.05;;
73296;SDS011;61524;50.938;11.396;2022-10-16T12:18:40;2.00;;;0.70;;
73296;SDS011;61524;50.938;11.396;2022-10-16T12:21:08;1.40;;;0.80;;
73296;SDS011;61524;50.938;11.396;2022-10-16T12:23:38;1.13;;;0.70;;
73296;SDS011;61524;50.938;11.396;2022-10-16T12:26:12;1.05;;;0.65;;
73296;SDS011;61524;50.938;11.396;2022-10-16T12:28:38;1.95;;;1.08;;
73296;SDS011;61524;50.938;11.396;2022-10-16T12:31:06;2.20;;;1.13;;
73296;SDS011;61524;50.938;11.396;2022-10-16T12:33:41;1.65;;;0.90;;
73296;SDS011;61524;50.938;11.396;2022-10-16T12:36:31;1.95;;;0.80;;
73296;SDS011;61524;50.938;11.396;2022-10-16T12:38:59;2.10;;;0.70;;
73296;SDS011;61524;50.938;11.396;2022-10-16T12:41:27;1.98;;;1.10;;
73296;SDS011;61524;50.938;11.396;2022-10-16T12:44:21;2.80;;;1.25;;
73296;SDS011;61524;50.938;11.396;2022-10-16T12:46:51;2.50;;;1.38;;
73296;SDS011;61524;50.938;11.396;2022-10-16T12:49:35;2.08;;;1.13;;
73296;SDS011;61524;50.938;11.396;2022-10-16T12:52:03;2.28;;;1.40;;
73296;SDS011;61524;50.938;11.396;2022-10-16T12:54:30;2.25;;;1.02;;
73296;SDS011;61524;50.938;11.396;2022-10-16T13:16:29;3.25;;;1.30;;
73296;SDS011;61524;50.938;11.396;2022-10-16T13:19:00;2.45;;;1.30;;
73296;SDS011;61524;50.938;11.396;2022-10-16T13:21:51;3.08;;;1.23;;
73296;SDS011;61524;50.938;11.396;2022-10-16T13:29:35;2.58;;;1.55;;
73296;SDS011;61524;50.938;11.396;2022-10-16T13:32:00;4.57;;;1.85;;
73296;SDS011;61524;50.938;11.396;2022-10-16T13:34:32;2.78;;;1.50;;
73296;SDS011;61524;50.938;11.396;2022-10-16T13:36:57;4.88;;;1.38;;
73296;SDS011;61524;50.938;11.396;2022-10-16T13:39:24;4.35;;;1.65;;
73296;SDS011;61524;50.938;11.396;2022-10-16T13:42:01;2.70;;;1.08;;
73296;SDS011;61524;50.938;11.396;2022-10-16T13:44:33;2.80;;;1.50;;
73296;SDS011;61524;50.938;11.396;2022-10-16T13:47:04;4.13;;;1.63;;
73296;SDS011;61524;50.938;11.396;2022-10-16T13:49:29;4.22;;;1.35;;
73296;SDS011;61524;50.938;11.396;2022-10-16T13:51:55;2.47;;;1.10;;
73296;SDS011;61524;50.938;11.396;2022-10-16T13:54:23;3.90;;;1.13;;
73296;SDS011;61524;50.938;11.396;2022-10-16T13:56:49;2.10;;;1.13;;
73296;SDS011;61524;50.938;11.396;2022-10-16T13:59:24;2.72;;;1.20;;
73296;SDS011;61524;50.938;11.396;2022-10-16T14:01:55;3.13;;;1.33;;
73296;SDS011;61524;50.938;11.396;2022-10-16T14:04:23;2.35;;;1.23;;
73296;SDS011;61524;50.938;11.396;2022-10-16T14:06:49;3.53;;;1.70;;
73296;SDS011;61524;50.938;11.396;2022-10-16T14:09:29;3.20;;;1.80;;
73296;SDS011;61524;50.938;11.396;2022-10-16T14:11:58;2.20;;;1.10;;
73296;SDS011;61524;50.938;11.396;2022-10-16T14:14:27;2.83;;;1.15;;
73296;SDS011;61524;50.938;11.396;2022-10-16T14:17:16;1.90;;;1.10;;
73296;SDS011;61524;50.938;11.396;2022-10-16T14:19:48;2.17;;;0.98;;
73296;SDS011;61524;50.938;11.396;2022-10-16T14:22:57;2.00;;;1.10;;
73296;SDS011;61524;50.938;11.396;2022-10-16T14:30:34;2.13;;;1.10;;
73296;SDS011;61524;50.938;11.396;2022-10-16T14:33:02;2.38;;;1.30;;
73296;SDS011;61524;50.938;11.396;2022-10-16T14:35:31;2.65;;;1.20;;
73296;SDS011;61524;50.938;11.396;2022-10-16T14:38:01;3.17;;;0.90;;
73296;SDS011;61524;50.938;11.396;2022-10-16T14:40:29;2.88;;;0.90;;
73296;SDS011;61524;50.938;11.396;2022-10-16T14:43:03;2.50;;;1.10;;
73296;SDS011;61524;50.938;11.396;2022-10-16T14:45:31;2.42;;;1.20;;
73296;SDS011;61524;50.938;11.396;2022-10-16T14:48:03;2.10;;;1.20;;
73296;SDS011;61524;50.938;11.396;2022-10-16T14:50:39;2.17;;;1.05;;
73296;SDS011;61524;50.938;11.396;2022-10-16T14:53:08;2.85;;;0.90;;
73296;SDS011;61524;50.938;11.396;2022-10-16T14:55:37;2.13;;;0.93;;
73296;SDS011;61524;50.938;11.396;2022-10-16T14:58:02;3.05;;;1.10;;
73296;SDS011;61524;50.938;11.396;2022-10-16T15:00:28;2.30;;;1.60;;
73296;SDS011;61524;50.938;11.396;2022-10-16T15:02:53;3.97;;;1.27;;
73296;SDS011;61524;50.938;11.396;2022-10-16T15:05:20;2.45;;;1.30;;
73296;SDS011;61524;50.938;11.396;2022-10-16T15:07:48;3.13;;;1.42;;
73296;SDS011;61524;50.938;11.396;2022-10-16T15:10:14;3.60;;;1.30;;
73296;SDS011;61524;50.938;11.396;2022-10-16T15:12:41;2.78;;;1.10;;
73296;SDS011;61524;50.938;11.396;2022-10-16T15:17:52;2.25;;;1.00;;
73296;SDS011;61524;50.938;11.396;2022-10-16T15:20:20;1.92;;;0.90;;
73296;SDS011;61524;50.938;11.396;2022-10-16T15:22:46;2.70;;;1.00;;
73296;SDS011;61524;50.938;11.396;2022-10-16T15:25:34;1.98;;;1.00;;
73296;SDS011;61524;50.938;11.396;2022-10-16T15:28:07;2.60;;;1.30;;
73296;SDS011;61524;50.938;11.396;2022-10-16T15:30:33;2.88;;;1.40;;
73296;SDS011;61524;50.938;11.396;2022-10-16T15:32:59;2.95;;;1.10;;
73296;SDS011;61524;50.938;11.396;2022-10-16T15:35:25;2.80;;;1.30;;
73296;SDS011;61524;50.938;11.396;2022-10-16T15:37:51;2.28;;;1.30;;
73296;SDS011;61524;50.938;11.396;2022-10-16T15:40:17;3.47;;;1.20;;
73296;SDS011;61524;50.938;11.396;2022-10-16T15:42:44;4.05;;;1.38;;
73296;SDS011;61524;50.938;11.396;2022-10-16T15:45:10;3.20;;;1.40;;
73296;SDS011;61524;50.938;11.396;2022-10-16T15:47:36;2.70;;;1.50;;
73296;SDS011;61524;50.938;11.396;2022-10-16T15:50:02;2.92;;;1.30;;
73296;SDS011;61524;50.938;11.396;2022-10-16T15:52:28;4.65;;;1.30;;
73296;SDS011;61524;50.938;11.396;2022-10-16T15:54:54;2.25;;;1.30;;
73296;SDS011;61524;50.938;11.396;2022-10-16T15:57:20;2.95;;;1.25;;
73296;SDS011;61524;50.938;11.396;2022-10-16T15:59:45;2.83;;;1.27;;
73296;SDS011;61524;50.938;11.396;2022-10-16T16:02:10;2.20;;;1.33;;
73296;SDS011;61524;50.938;11.396;2022-10-16T16:04:36;4.13;;;1.05;;
73296;SDS011;61524;50.938;11.396;2022-10-16T16:07:02;4.03;;;1.40;;
73296;SDS011;61524;50.938;11.396;2022-10-16T16:09:30;2.58;;;1.38;;
73296;SDS011;61524;50.938;11.396;2022-10-16T16:11:56;3.60;;;1.60;;
73296;SDS011;61524;50.938;11.396;2022-10-16T16:14:23;3.28;;;1.50;;
73296;SDS011;61524;50.938;11.396;2022-10-16T16:16:49;7.13;;;1.58;;
73296;SDS011;61524;50.938;11.396;2022-10-16T16:19:14;4.85;;;2.00;;
73296;SDS011;61524;50.938;11.396;2022-10-16T16:21:41;3.83;;;2.45;;
73296;SDS011;61524;50.938;11.396;2022-10-16T16:24:07;3.80;;;1.92;;
73296;SDS011;61524;50.938;11.396;2022-10-16T16:26:33;3.60;;;1.67;;
73296;SDS011;61524;50.938;11.396;2022-10-16T16:29:02;4.53;;;1.60;;
73296;SDS011;61524;50.938;11.396;2022-10-16T16:31:28;3.95;;;1.98;;
73296;SDS011;61524;50.938;11.396;2022-10-16T16:33:55;3.92;;;1.48;;
73296;SDS011;61524;50.938;11.396;2022-10-16T16:36:22;3.72;;;1.70;;
73296;SDS011;61524;50.938;11.396;2022-10-16T16:41:14;2.47;;;1.40;;
73296;SDS011;61524;50.938;11.396;2022-10-16T16:43:41;4.35;;;1.30;;
73296;SDS011;61524;50.938;11.396;2022-10-16T16:46:08;3.03;;;1.40;;
73296;SDS011;61524;50.938;11.396;2022-10-16T16:48:37;2.97;;;1.30;;
73296;SDS011;61524;50.938;11.396;2022-10-16T16:51:07;2.47;;;1.30;;
73296;SDS011;61524;50.938;11.396;2022-10-16T16:53:35;2.97;;;1.38;;
73296;SDS011;61524;50.938;11.396;2022-10-16T16:56:04;4.35;;;1.83;;
73296;SDS011;61524;50.938;11.396;2022-10-16T16:58:31;3.05;;;1.40;;
73296;SDS011;61524;50.938;11.396;2022-10-16T17:00:57;4.15;;;1.40;;
73296;SDS011;61524;50.938;11.396;2022-10-16T17:03:30;4.43;;;1.70;;